CheckWX is a tool to help pilots better visualize weather data.  It is not intended as a substitute for an official pre-flight weather briefing.

03:17:11 UTC

KMHT TAF
Manchester Airport
Manchester, New Hampshire, USA
KMHT 172323Z 1800/1824 VRB03KT P6SM BKN060 FM181200 03009KT P6SM SCT050

Sep-18@
00:00 UTC

Sep-18 @ 00:00 UTC

Sep-18@
12:00 UTC

Sep-18 @ 12:00 UTC

KMHT 172323Z 1800/1824 VRB03KT P6SM BKN060
Wind
  • Variable at 3 KTS
Cloud Levels
  • Broken at 6,000' AGL

Sep-18@
12:00 UTC

Sep-18 @ 12:00 UTC

Sep-19@
00:00 UTC

Sep-19 @ 00:00 UTC

FM181200 03009KT P6SM SCT050

From

From Standard forecast or significant change

Wind
  • 030° at 9 KTS
Cloud Levels
  • Scattered at 5,000' AGL